Terminal Aerodrome Forecast
Issued by NWS Houston/Galveston, TX

Home | Current Version | Previous Version | Text Only | Print | Product List | Glossary On
Versions: 1 2 3 4 5 6 7 8 9 10 11 12 13 14 15 16 17 18 19 20 21 22 23 24 25 26 27 28 29 30 31 32 33 34 35
000
FTUS44 KHGX 261802 AAA
TAFGLS
TAF AMD
KGLS 261802Z 2618/2718 14011KT P6SM BKN080
     FM270200 12009KT 4SM BR SCT007 BKN015
     FM270400 13010KT 3SM BR BKN007
     FM271200 15007KT 2SM BR OVC005=

USA.gov is the U.S. government's official web portal to all federal, state and local government web resources and services.